Time;durP1;ratioP1;P1;durP2;ratioP2;P2;SDS_P1;SDS_P2;PMS_P1;PMS_P2;Temp;Humidity;BMP_temperature;BMP_pressure;BME280_temperature;BME280_humidity;BME280_pressure;Samples;Min_cycle;Max_cycle;Signal;HPM_P1;HPM_P2
2021/07/08 00:00:24;;;;;;;14.70;9.90;;;;;;;;;;5077132;28;20101;-87
2021/07/08 00:02:50;;;;;;;16.80;12.77;;;;;;;;;;5077197;28;20031;-87
2021/07/08 00:05:17;;;;;;;18.42;13.20;;;;;;;;;;5075930;28;20016;-86
2021/07/08 00:07:43;;;;;;;20.48;13.60;;;;;;;;;;5076955;28;20016;-87
2021/07/08 00:10:14;;;;;;;18.70;14.32;;;;;;;;;;5076099;28;20116;-87
2021/07/08 00:12:41;;;;;;;24.05;14.50;;;;;;;;;;5076229;28;20040;-87
2021/07/08 00:15:12;;;;;;;24.10;14.18;;;;;;;;;;5076014;28;20025;-87
2021/07/08 00:17:38;;;;;;;20.67;13.13;;;;;;;;;;5077085;28;20046;-87
2021/07/08 00:20:09;;;;;;;19.38;13.55;;;;;;;;;;5076943;28;20020;-87
2021/07/08 00:22:35;;;;;;;16.27;12.68;;;;;;;;;;5080493;28;20020;-87
2021/07/08 00:25:01;;;;;;;18.52;12.68;;;;;;;;;;5079556;28;20058;-87
2021/07/08 00:27:27;;;;;;;19.13;13.30;;;;;;;;;;5080569;28;20100;-88
2021/07/08 00:29:53;;;;;;;15.75;12.48;;;;;;;;;;5079353;28;20026;-88
2021/07/08 00:32:19;;;;;;;17.70;12.98;;;;;;;;;;5079369;28;20033;-88
2021/07/08 00:34:45;;;;;;;23.13;13.45;;;;;;;;;;5079396;28;20081;-87
2021/07/08 00:37:11;;;;;;;18.60;13.55;;;;;;;;;;5079074;28;20158;-89
2021/07/08 00:39:37;;;;;;;18.65;12.70;;;;;;;;;;5080367;28;20021;-88
2021/07/08 00:42:04;;;;;;;17.00;12.20;;;;;;;;;;5079933;28;20441;-87
2021/07/08 00:44:30;;;;;;;20.85;13.10;;;;;;;;;;5078826;28;20043;-87
2021/07/08 00:46:56;;;;;;;15.85;12.90;;;;;;;;;;5080354;28;20020;-86
2021/07/08 00:49:22;;;;;;;18.92;13.05;;;;;;;;;;5080075;28;20032;-87
2021/07/08 00:51:48;;;;;;;17.63;13.00;;;;;;;;;;5079890;28;20027;-86
2021/07/08 00:54:14;;;;;;;17.10;12.57;;;;;;;;;;5079762;28;20056;-85
2021/07/08 00:56:40;;;;;;;21.48;13.05;;;;;;;;;;5079954;28;20363;-86
2021/07/08 00:59:07;;;;;;;16.38;12.68;;;;;;;;;;5080133;28;20021;-86
2021/07/08 01:01:34;;;;;;;17.98;12.48;;;;;;;;;;5079835;28;20029;-88
2021/07/08 01:04:04;;;;;;;17.13;12.27;;;;;;;;;;5078875;28;20036;-87
2021/07/08 01:06:31;;;;;;;16.77;12.07;;;;;;;;;;5079557;28;20108;-86
2021/07/08 01:08:58;;;;;;;21.38;12.60;;;;;;;;;;5079500;28;20025;-86
2021/07/08 01:11:24;;;;;;;15.15;12.30;;;;;;;;;;5079761;28;20020;-86
2021/07/08 01:13:51;;;;;;;14.60;11.10;;;;;;;;;;5079357;28;20128;-86
2021/07/08 01:16:17;;;;;;;14.52;11.32;;;;;;;;;;5079433;28;20024;-86
2021/07/08 01:18:44;;;;;;;15.50;11.40;;;;;;;;;;5079673;28;20445;-86
2021/07/08 01:21:19;;;;;;;17.27;12.23;;;;;;;;;;5079459;28;20100;-86
2021/07/08 01:23:45;;;;;;;16.00;11.68;;;;;;;;;;5078410;28;20498;-87
2021/07/08 01:26:11;;;;;;;17.15;11.88;;;;;;;;;;5079173;28;20425;-87
2021/07/08 01:28:38;;;;;;;17.20;11.55;;;;;;;;;;5079414;28;20024;-86
2021/07/08 01:31:06;;;;;;;16.15;11.95;;;;;;;;;;5079189;28;20021;-87
2021/07/08 01:33:32;;;;;;;22.00;12.50;;;;;;;;;;5079124;28;20044;-88
2021/07/08 01:35:59;;;;;;;18.70;12.30;;;;;;;;;;5078157;28;20024;-87
2021/07/08 01:38:25;;;;;;;23.77;12.05;;;;;;;;;;5078111;28;20070;-87
2021/07/08 01:40:51;;;;;;;18.15;11.73;;;;;;;;;;5079204;28;20021;-87
2021/07/08 01:43:17;;;;;;;17.90;11.70;;;;;;;;;;5078808;28;20127;-87
2021/07/08 01:45:44;;;;;;;17.63;11.57;;;;;;;;;;5078941;28;20349;-87
2021/07/08 01:48:10;;;;;;;16.17;11.55;;;;;;;;;;5078826;28;20024;-87
2021/07/08 01:50:36;;;;;;;16.58;11.13;;;;;;;;;;5078728;28;20034;-89
2021/07/08 01:53:02;;;;;;;17.20;11.10;;;;;;;;;;5078781;28;20029;-89
2021/07/08 01:55:28;;;;;;;19.45;10.93;;;;;;;;;;5078657;28;20021;-86
2021/07/08 01:57:57;;;;;;;16.88;10.75;;;;;;;;;;5078667;28;20016;-87
2021/07/08 02:00:24;;;;;;;17.83;10.95;;;;;;;;;;5078158;28;20016;-81
2021/07/08 02:02:51;;;;;;;16.52;11.43;;;;;;;;;;5076993;28;20028;-82
2021/07/08 02:05:18;;;;;;;13.80;10.30;;;;;;;;;;5077134;28;20024;-82
2021/07/08 02:07:44;;;;;;;14.07;11.32;;;;;;;;;;5077000;28;20052;-81
2021/07/08 02:10:11;;;;;;;16.88;11.40;;;;;;;;;;5078147;28;20334;-81
2021/07/08 02:12:37;;;;;;;18.15;11.52;;;;;;;;;;5076575;28;20059;-81
2021/07/08 02:15:04;;;;;;;18.02;10.65;;;;;;;;;;5077984;28;20026;-81
2021/07/08 02:17:30;;;;;;;14.20;10.82;;;;;;;;;;5077853;28;20021;-81
2021/07/08 02:19:56;;;;;;;23.15;12.02;;;;;;;;;;5077837;28;20020;-81
2021/07/08 02:22:22;;;;;;;21.20;12.02;;;;;;;;;;5077601;28;20047;-81
2021/07/08 02:24:48;;;;;;;16.70;11.88;;;;;;;;;;5077805;28;20036;-82
2021/07/08 02:27:14;;;;;;;18.17;12.32;;;;;;;;;;5077795;28;20074;-82
2021/07/08 02:29:40;;;;;;;16.73;12.20;;;;;;;;;;5077693;28;20017;-82
2021/07/08 02:32:10;;;;;;;19.25;12.05;;;;;;;;;;5077516;28;20463;-82
2021/07/08 02:34:37;;;;;;;16.45;11.75;;;;;;;;;;5077621;28;20047;-82
2021/07/08 02:37:04;;;;;;;22.75;12.23;;;;;;;;;;5077412;28;20036;-82
2021/07/08 02:39:30;;;;;;;18.10;12.20;;;;;;;;;;5077441;28;20436;-82
2021/07/08 02:41:57;;;;;;;19.20;11.48;;;;;;;;;;5077472;28;20116;-82
2021/07/08 02:44:23;;;;;;;19.88;11.20;;;;;;;;;;5077257;28;20052;-82
2021/07/08 02:46:49;;;;;;;22.00;12.20;;;;;;;;;;5076283;28;20025;-82
2021/07/08 02:49:15;;;;;;;21.58;12.30;;;;;;;;;;5076239;28;20033;-84
2021/07/08 02:51:41;;;;;;;23.58;12.18;;;;;;;;;;5076336;28;20024;-83
2021/07/08 02:54:07;;;;;;;22.63;11.85;;;;;;;;;;5077457;28;20111;-83
2021/07/08 02:56:33;;;;;;;22.08;12.75;;;;;;;;;;5076973;28;20024;-82
2021/07/08 02:58:59;;;;;;;17.15;11.50;;;;;;;;;;5077499;28;20030;-82
2021/07/08 03:01:25;;;;;;;21.40;11.27;;;;;;;;;;5077423;28;20051;-82
2021/07/08 03:03:51;;;;;;;20.45;12.30;;;;;;;;;;5076141;28;20020;-82
2021/07/08 03:06:17;;;;;;;17.92;11.32;;;;;;;;;;5077209;28;20033;-82
2021/07/08 03:08:43;;;;;;;18.02;10.75;;;;;;;;;;5076031;28;20029;-83
2021/07/08 03:11:10;;;;;;;18.48;10.75;;;;;;;;;;5076098;28;20025;-82
2021/07/08 03:13:37;;;;;;;22.35;11.02;;;;;;;;;;5075661;28;20049;-82
2021/07/08 03:16:05;;;;;;;21.40;11.50;;;;;;;;;;5077224;28;20105;-82
2021/07/08 03:18:31;;;;;;;16.48;10.38;;;;;;;;;;5077128;28;20020;-82
2021/07/08 03:20:57;;;;;;;16.88;10.98;;;;;;;;;;5076983;28;20063;-82
2021/07/08 03:23:23;;;;;;;16.75;11.25;;;;;;;;;;5076838;28;20398;-82
2021/07/08 03:25:49;;;;;;;19.73;11.82;;;;;;;;;;5077162;28;20361;-82
2021/07/08 03:28:15;;;;;;;18.48;10.45;;;;;;;;;;5075921;28;20435;-82
2021/07/08 03:30:41;;;;;;;16.65;10.50;;;;;;;;;;5076771;28;20403;-82
2021/07/08 03:33:07;;;;;;;17.15;11.27;;;;;;;;;;5077018;28;20021;-82
2021/07/08 03:35:34;;;;;;;29.17;11.80;;;;;;;;;;5076887;28;20058;-82
2021/07/08 03:38:00;;;;;;;21.17;12.07;;;;;;;;;;5076807;28;20031;-83
2021/07/08 03:40:27;;;;;;;23.60;12.07;;;;;;;;;;5076768;28;20028;-83
2021/07/08 03:42:53;;;;;;;17.90;11.10;;;;;;;;;;5076897;28;20065;-83
2021/07/08 03:45:20;;;;;;;22.85;11.93;;;;;;;;;;5076999;28;20021;-83
2021/07/08 03:47:46;;;;;;;22.90;13.35;;;;;;;;;;5075896;28;20021;-83
2021/07/08 03:50:14;;;;;;;17.98;10.73;;;;;;;;;;5076890;28;20024;-83
2021/07/08 03:52:41;;;;;;;18.13;11.57;;;;;;;;;;5076779;28;20032;-83
2021/07/08 03:55:09;;;;;;;16.98;10.48;;;;;;;;;;5076943;28;20032;-83
2021/07/08 03:57:35;;;;;;;23.42;11.50;;;;;;;;;;5080602;28;20025;-83
2021/07/08 04:00:01;;;;;;;25.02;11.93;;;;;;;;;;5080578;28;20130;-82
2021/07/08 04:02:27;;;;;;;20.02;11.48;;;;;;;;;;5080551;28;20055;-82
2021/07/08 04:04:53;;;;;;;19.48;10.60;;;;;;;;;;5080433;28;20027;-82
2021/07/08 04:07:19;;;;;;;21.75;10.52;;;;;;;;;;5080138;28;20020;-82
2021/07/08 04:09:45;;;;;;;22.40;11.18;;;;;;;;;;5080059;28;20036;-83
2021/07/08 04:12:11;;;;;;;19.90;11.85;;;;;;;;;;5080327;28;20028;-83
2021/07/08 04:14:37;;;;;;;16.75;11.13;;;;;;;;;;5079187;28;20115;-83
2021/07/08 04:17:03;;;;;;;19.45;11.70;;;;;;;;;;5079116;28;20058;-83
2021/07/08 04:19:30;;;;;;;19.40;11.65;;;;;;;;;;5080450;28;20036;-82
2021/07/08 04:21:56;;;;;;;18.27;10.95;;;;;;;;;;5079919;28;20024;-82
2021/07/08 04:24:22;;;;;;;23.60;12.18;;;;;;;;;;5078962;28;20032;-82
2021/07/08 04:26:48;;;;;;;20.08;11.55;;;;;;;;;;5080222;28;20024;-82
2021/07/08 04:29:14;;;;;;;17.67;11.27;;;;;;;;;;5078908;28;20036;-82
2021/07/08 04:31:40;;;;;;;19.70;11.02;;;;;;;;;;5080014;28;20020;-82
2021/07/08 04:34:06;;;;;;;18.45;10.63;;;;;;;;;;5078681;28;20028;-83
2021/07/08 04:36:32;;;;;;;15.82;10.50;;;;;;;;;;5080041;28;20047;-82
2021/07/08 04:38:58;;;;;;;16.15;9.95;;;;;;;;;;5080174;28;20020;-82
2021/07/08 04:41:24;;;;;;;20.17;10.82;;;;;;;;;;5078634;28;20036;-82
2021/07/08 04:43:50;;;;;;;15.85;10.55;;;;;;;;;;5081310;28;20070;-80
2021/07/08 04:46:17;;;;;;;17.83;10.32;;;;;;;;;;5097329;28;20027;-81
2021/07/08 04:48:43;;;;;;;18.33;10.52;;;;;;;;;;5086461;28;20097;-81
2021/07/08 04:51:11;;;;;;;18.30;10.77;;;;;;;;;;5079304;28;20080;-81
2021/07/08 04:53:37;;;;;;;13.65;10.52;;;;;;;;;;5079203;28;20020;-83
2021/07/08 04:56:03;;;;;;;16.75;11.40;;;;;;;;;;5079365;28;20421;-82
2021/07/08 04:58:29;;;;;;;14.02;9.85;;;;;;;;;;5079300;28;20017;-81
2021/07/08 05:00:55;;;;;;;17.13;11.40;;;;;;;;;;5090905;28;20042;-82
2021/07/08 05:03:21;;;;;;;16.52;11.07;;;;;;;;;;5087168;28;20028;-82
2021/07/08 05:05:49;;;;;;;18.75;11.45;;;;;;;;;;5079150;28;20062;-82
2021/07/08 05:08:15;;;;;;;15.05;10.55;;;;;;;;;;5082456;28;20330;-82
2021/07/08 05:10:41;;;;;;;22.05;11.25;;;;;;;;;;5094830;28;20058;-82
2021/07/08 05:13:08;;;;;;;16.50;9.55;;;;;;;;;;5079161;28;20055;-82
2021/07/08 05:15:36;;;;;;;15.23;10.43;;;;;;;;;;5079069;28;20021;-82
2021/07/08 05:18:02;;;;;;;15.63;10.50;;;;;;;;;;5079209;28;20029;-82
2021/07/08 05:20:29;;;;;;;17.67;10.82;;;;;;;;;;5079017;28;20429;-82
2021/07/08 05:22:59;;;;;;;17.38;11.25;;;;;;;;;;5077871;28;20029;-82
2021/07/08 05:25:26;;;;;;;20.27;11.82;;;;;;;;;;5077880;28;20047;-82
2021/07/08 05:27:52;;;;;;;19.40;13.38;;;;;;;;;;5079156;28;20086;-82
2021/07/08 05:30:18;;;;;;;21.10;11.80;;;;;;;;;;5078697;28;20421;-81
2021/07/08 05:32:45;;;;;;;15.68;10.70;;;;;;;;;;5078676;28;20127;-81
2021/07/08 05:35:11;;;;;;;14.85;10.88;;;;;;;;;;5078651;28;20040;-81
2021/07/08 05:37:37;;;;;;;20.00;14.07;;;;;;;;;;5078504;28;20040;-81
2021/07/08 05:40:04;;;;;;;60.45;42.90;;;;;;;;;;5078836;28;20027;-82
2021/07/08 05:42:30;;;;;;;151.63;117.00;;;;;;;;;;5078497;28;20028;-82
2021/07/08 05:44:57;;;;;;;146.77;110.88;;;;;;;;;;5077402;28;20032;-82
2021/07/08 05:47:23;;;;;;;80.78;60.70;;;;;;;;;;5078269;28;20028;-81
2021/07/08 05:49:50;;;;;;;123.28;93.05;;;;;;;;;;5078383;28;20032;-82
2021/07/08 05:52:16;;;;;;;63.72;49.15;;;;;;;;;;5078308;28;20021;-81
2021/07/08 05:54:42;;;;;;;80.18;62.95;;;;;;;;;;5078064;28;20059;-82
2021/07/08 05:57:08;;;;;;;97.40;73.68;;;;;;;;;;5078373;28;20025;-82
2021/07/08 05:59:34;;;;;;;48.47;38.15;;;;;;;;;;5078307;28;20032;-81
2021/07/08 06:02:00;;;;;;;53.05;38.53;;;;;;;;;;5077018;28;20024;-81
2021/07/08 06:04:26;;;;;;;20.52;16.55;;;;;;;;;;5078191;28;20029;-82
2021/07/08 06:06:52;;;;;;;29.92;16.15;;;;;;;;;;5078198;28;20028;-83
2021/07/08 06:09:18;;;;;;;17.90;10.25;;;;;;;;;;5076880;28;20068;-82
2021/07/08 06:11:44;;;;;;;18.42;10.32;;;;;;;;;;5077004;28;20034;-82
2021/07/08 06:14:10;;;;;;;12.93;9.32;;;;;;;;;;5077761;28;20080;-82
2021/07/08 06:16:36;;;;;;;17.95;10.77;;;;;;;;;;5077843;28;20016;-81
2021/07/08 06:19:02;;;;;;;12.07;8.70;;;;;;;;;;5077310;28;20028;-82
2021/07/08 06:21:29;;;;;;;14.30;9.75;;;;;;;;;;5077777;28;20103;-82
2021/07/08 06:23:55;;;;;;;27.48;15.23;;;;;;;;;;5076646;28;20044;-82
2021/07/08 06:26:21;;;;;;;19.63;11.38;;;;;;;;;;5077871;28;20103;-82
2021/07/08 06:28:47;;;;;;;16.20;10.02;;;;;;;;;;5076512;28;20032;-82
2021/07/08 06:31:14;;;;;;;16.58;10.27;;;;;;;;;;5077797;28;20028;-82
2021/07/08 06:33:40;;;;;;;15.95;8.63;;;;;;;;;;5077425;28;20033;-82
2021/07/08 06:36:08;;;;;;;21.48;10.38;;;;;;;;;;5077728;28;20024;-82
2021/07/08 06:38:34;;;;;;;13.18;8.73;;;;;;;;;;5077966;28;20016;-82
2021/07/08 06:41:00;;;;;;;15.25;9.65;;;;;;;;;;5077539;28;20016;-82
2021/07/08 06:43:26;;;;;;;11.40;8.68;;;;;;;;;;5077474;28;20039;-82
2021/07/08 06:45:52;;;;;;;16.25;9.35;;;;;;;;;;5077307;28;20054;-83
2021/07/08 06:48:18;;;;;;;11.77;9.02;;;;;;;;;;5077405;28;20025;-83
2021/07/08 06:50:44;;;;;;;12.57;9.25;;;;;;;;;;5077224;28;20044;-82
2021/07/08 06:53:10;;;;;;;9.88;8.45;;;;;;;;;;5076148;28;20445;-82
2021/07/08 06:55:37;;;;;;;13.85;9.10;;;;;;;;;;5077147;28;20059;-82
2021/07/08 06:58:03;;;;;;;13.95;8.98;;;;;;;;;;5077294;28;20025;-82
2021/07/08 07:00:30;;;;;;;16.83;8.88;;;;;;;;;;5077064;28;20390;-82
2021/07/08 07:02:59;;;;;;;13.52;8.63;;;;;;;;;;5077068;28;20100;-82
2021/07/08 07:05:26;;;;;;;18.60;10.18;;;;;;;;;;5077127;28;20330;-82
2021/07/08 07:07:52;;;;;;;13.77;9.10;;;;;;;;;;5076914;28;20020;-81
2021/07/08 07:10:20;;;;;;;11.40;8.93;;;;;;;;;;5075932;28;20119;-81
2021/07/08 07:12:47;;;;;;;12.98;8.73;;;;;;;;;;5076910;28;20140;-81
2021/07/08 07:15:14;;;;;;;15.57;9.13;;;;;;;;;;5076853;28;20025;-82
2021/07/08 07:17:40;;;;;;;11.43;8.50;;;;;;;;;;5077056;28;20319;-82
2021/07/08 07:20:07;;;;;;;18.15;9.68;;;;;;;;;;5077114;28;20021;-81
2021/07/08 07:22:33;;;;;;;13.45;9.18;;;;;;;;;;5076947;28;20025;-82
2021/07/08 07:25:00;;;;;;;11.73;8.65;;;;;;;;;;5075768;28;20032;-81
2021/07/08 07:27:26;;;;;;;12.25;8.57;;;;;;;;;;5077040;28;20024;-81
2021/07/08 07:29:52;;;;;;;12.35;9.07;;;;;;;;;;5078045;28;20075;-81
2021/07/08 07:32:18;;;;;;;17.10;8.98;;;;;;;;;;5080928;28;20317;-81
2021/07/08 07:34:44;;;;;;;12.40;8.55;;;;;;;;;;5079918;28;20346;-82
2021/07/08 07:37:11;;;;;;;14.45;8.40;;;;;;;;;;5081043;28;20048;-81
2021/07/08 07:39:37;;;;;;;13.95;8.32;;;;;;;;;;5080826;28;20303;-82
2021/07/08 07:42:03;;;;;;;9.32;8.32;;;;;;;;;;5079685;28;20024;-82
2021/07/08 07:44:29;;;;;;;14.00;8.15;;;;;;;;;;5079571;28;20038;-82
2021/07/08 07:46:55;;;;;;;10.65;8.02;;;;;;;;;;5080565;28;20027;-82
2021/07/08 07:49:21;;;;;;;10.48;7.93;;;;;;;;;;5080416;28;20399;-82
2021/07/08 07:51:47;;;;;;;11.70;7.70;;;;;;;;;;5079227;28;20128;-82
2021/07/08 07:54:13;;;;;;;11.95;7.72;;;;;;;;;;5079238;28;20324;-82
2021/07/08 07:56:39;;;;;;;11.98;7.47;;;;;;;;;;5079385;28;20337;-82
2021/07/08 07:59:05;;;;;;;10.55;8.02;;;;;;;;;;5080671;28;20363;-81
2021/07/08 08:01:31;;;;;;;8.27;7.28;;;;;;;;;;5080579;28;20318;-82
2021/07/08 08:03:59;;;;;;;13.45;7.45;;;;;;;;;;5080474;28;20021;-82
2021/07/08 08:09:12;;;;;;;12.30;7.65;;;;;;;;;;5080485;28;20102;-81
2021/07/08 08:11:38;;;;;;;10.55;7.22;;;;;;;;;;5080334;28;20024;-82
2021/07/08 08:14:04;;;;;;;9.45;6.60;;;;;;;;;;5079866;28;20048;-81
2021/07/08 08:16:33;;;;;;;7.50;6.55;;;;;;;;;;5079877;28;20111;-81
2021/07/08 08:18:59;;;;;;;7.95;6.60;;;;;;;;;;5080179;28;20416;-82
2021/07/08 08:21:25;;;;;;;11.27;6.82;;;;;;;;;;5079979;28;20020;-82
2021/07/08 08:23:51;;;;;;;12.07;6.80;;;;;;;;;;5080190;28;20031;-82
2021/07/08 08:26:17;;;;;;;7.10;6.35;;;;;;;;;;5078764;28;20053;-82
2021/07/08 08:28:43;;;;;;;9.50;6.05;;;;;;;;;;5078898;28;20123;-81
2021/07/08 08:31:10;;;;;;;10.10;5.63;;;;;;;;;;5080061;28;20028;-82
2021/07/08 08:33:36;;;;;;;6.63;4.50;;;;;;;;;;5078899;28;20124;-82
2021/07/08 08:36:02;;;;;;;7.03;5.03;;;;;;;;;;5079768;28;20036;-81
2021/07/08 08:38:28;;;;;;;7.78;5.55;;;;;;;;;;5079657;28;20111;-81
2021/07/08 08:40:56;;;;;;;7.65;5.13;;;;;;;;;;5078183;28;20024;-81
2021/07/08 08:43:22;;;;;;;16.75;5.97;;;;;;;;;;5079856;28;20029;-81
2021/07/08 08:45:49;;;;;;;7.25;5.55;;;;;;;;;;5078396;28;20036;-81
2021/07/08 08:48:15;;;;;;;8.85;6.05;;;;;;;;;;5079858;28;20205;-81
2021/07/08 08:50:43;;;;;;;9.10;5.80;;;;;;;;;;5079362;28;20020;-81
2021/07/08 08:53:10;;;;;;;8.57;5.95;;;;;;;;;;5079409;28;20089;-81
2021/07/08 08:55:37;;;;;;;6.97;5.55;;;;;;;;;;5079626;28;20099;-81
2021/07/08 08:58:05;;;;;;;9.23;5.82;;;;;;;;;;5079524;28;20023;-81
2021/07/08 09:00:31;;;;;;;10.13;6.07;;;;;;;;;;5079346;28;20024;-81
2021/07/08 09:03:00;;;;;;;8.73;5.53;;;;;;;;;;5079243;28;20025;-81
2021/07/08 09:05:26;;;;;;;10.40;5.50;;;;;;;;;;5079278;28;20028;-81
2021/07/08 09:07:52;;;;;;;8.55;5.50;;;;;;;;;;5078096;28;20060;-81
2021/07/08 09:10:18;;;;;;;6.70;5.55;;;;;;;;;;5079289;28;20099;-80
2021/07/08 09:12:45;;;;;;;9.68;5.53;;;;;;;;;;5078940;28;20119;-81
2021/07/08 09:15:15;;;;;;;6.82;5.38;;;;;;;;;;5078992;28;20028;-81
2021/07/08 09:17:42;;;;;;;8.02;5.53;;;;;;;;;;5079234;28;20082;-81
2021/07/08 09:20:09;;;;;;;10.70;5.70;;;;;;;;;;5077993;28;20032;-81
2021/07/08 09:22:36;;;;;;;9.77;5.05;;;;;;;;;;5077734;28;20437;-81
2021/07/08 09:25:22;;;;;;;12.38;5.78;;;;;;;;;;5079012;28;20052;-81
2021/07/08 09:27:49;;;;;;;8.88;5.20;;;;;;;;;;5078759;28;20384;-81
2021/07/08 09:30:25;;;;;;;10.25;5.45;;;;;;;;;;5077991;28;20318;-81
2021/07/08 09:32:51;;;;;;;6.18;4.80;;;;;;;;;;5077281;28;20037;-81
2021/07/08 09:35:31;;;;;;;9.52;5.53;;;;;;;;;;5078638;28;20028;-82
2021/07/08 09:38:10;;;;;;;5.70;5.20;;;;;;;;;;5078731;28;20028;-81
2021/07/08 09:40:36;;;;;;;9.70;5.43;;;;;;;;;;5078650;28;20389;-80
2021/07/08 09:43:02;;;;;;;7.10;5.00;;;;;;;;;;5078791;28;20032;-80
2021/07/08 09:45:30;;;;;;;9.73;5.25;;;;;;;;;;5078254;28;20023;-81
2021/07/08 09:48:09;;;;;;;6.95;5.07;;;;;;;;;;5078588;28;20020;-80
2021/07/08 09:50:38;;;;;;;5.43;4.90;;;;;;;;;;5078127;28;20307;-81
2021/07/08 09:53:07;;;;;;;10.27;5.38;;;;;;;;;;5076088;28;20027;-80
2021/07/08 09:58:53;;;;;;;6.68;5.05;;;;;;;;;;5078356;28;20031;-81
2021/07/08 10:01:19;;;;;;;5.30;4.80;;;;;;;;;;5078204;28;20119;-80
2021/07/08 10:03:48;;;;;;;7.60;5.10;;;;;;;;;;5078164;28;20025;-80
2021/07/08 10:06:15;;;;;;;10.50;4.90;;;;;;;;;;5078099;28;20028;-80
2021/07/08 10:08:41;;;;;;;8.52;5.05;;;;;;;;;;5077919;28;20032;-81
2021/07/08 10:11:09;;;;;;;7.28;4.93;;;;;;;;;;5077976;28;20029;-80
2021/07/08 10:13:36;;;;;;;8.15;4.53;;;;;;;;;;5076569;28;20051;-80
2021/07/08 10:16:04;;;;;;;8.68;4.38;;;;;;;;;;5078101;28;20016;-81
2021/07/08 10:18:31;;;;;;;6.38;4.40;;;;;;;;;;5076851;28;20078;-80
2021/07/08 10:20:58;;;;;;;9.90;4.80;;;;;;;;;;5077790;28;20109;-80
2021/07/08 10:23:26;;;;;;;12.60;4.63;;;;;;;;;;5076433;28;20070;-80
2021/07/08 10:25:52;;;;;;;7.70;4.68;;;;;;;;;;5076606;28;20028;-80
2021/07/08 10:28:18;;;;;;;10.50;4.90;;;;;;;;;;5076681;28;20059;-81
2021/07/08 10:30:45;;;;;;;6.85;4.68;;;;;;;;;;5077915;28;20020;-80
2021/07/08 10:33:12;;;;;;;10.18;4.63;;;;;;;;;;5076363;28;20043;-81
2021/07/08 10:35:45;;;;;;;16.25;5.57;;;;;;;;;;5077619;28;20032;-80
2021/07/08 10:38:30;;;;;;;12.15;5.53;;;;;;;;;;5077354;28;20024;-80
2021/07/08 10:40:57;;;;;;;6.90;6.05;;;;;;;;;;5077542;28;20021;-79
2021/07/08 10:43:34;;;;;;;19.85;12.25;;;;;;;;;;5076193;28;20379;-80
2021/07/08 10:46:00;;;;;;;18.58;11.70;;;;;;;;;;5077382;28;20051;-80
2021/07/08 10:48:37;;;;;;;52.00;27.80;;;;;;;;;;5077256;28;20478;-80
2021/07/08 10:51:06;;;;;;;14.27;7.28;;;;;;;;;;5077319;28;20036;-80
2021/07/08 10:53:34;;;;;;;33.38;17.42;;;;;;;;;;5077378;28;20052;-81
2021/07/08 10:56:01;;;;;;;26.20;15.40;;;;;;;;;;5077450;28;20021;-81
2021/07/08 10:58:47;;;;;;;23.55;10.13;;;;;;;;;;5076307;28;20026;-80
2021/07/08 11:01:23;;;;;;;21.15;12.02;;;;;;;;;;5077215;28;20062;-80
2021/07/08 11:03:50;;;;;;;17.50;8.55;;;;;;;;;;5076938;28;20410;-81
2021/07/08 11:06:24;;;;;;;29.55;13.80;;;;;;;;;;5075702;28;20426;-81
2021/07/08 11:08:51;;;;;;;23.40;11.43;;;;;;;;;;5077088;28;20032;-80
2021/07/08 11:11:23;;;;;;;23.45;13.02;;;;;;;;;;5077006;28;20028;-80
2021/07/08 11:13:56;;;;;;;22.20;12.52;;;;;;;;;;5076898;28;20044;-80
2021/07/08 11:16:42;;;;;;;28.80;13.65;;;;;;;;;;5059235;28;20423;-80
2021/07/08 11:19:11;;;;;;;26.85;14.68;;;;;;;;;;5075963;28;20028;-81
2021/07/08 11:22:09;;;;;;;34.88;17.05;;;;;;;;;;5075826;28;20128;-81
2021/07/08 11:24:44;;;;;;;24.10;13.70;;;;;;;;;;5035206;28;20109;-82
2021/07/08 11:27:12;;;;;;;8.25;6.25;;;;;;;;;;5035043;28;20032;-81
2021/07/08 11:29:38;;;;;;;35.63;19.85;;;;;;;;;;5035087;28;20438;-80
2021/07/08 11:32:17;;;;;;;27.75;17.23;;;;;;;;;;5035016;28;20037;-80
2021/07/08 11:34:54;;;;;;;32.97;17.83;;;;;;;;;;5017981;28;20428;-80
2021/07/08 11:37:24;;;;;;;10.65;8.43;;;;;;;;;;5034949;28;20475;-81
2021/07/08 11:39:55;;;;;;;6.45;5.50;;;;;;;;;;5035003;28;20049;-86
2021/07/08 11:42:21;;;;;;;;;;;;;;;;;;5035403;28;20030;-81
2021/07/08 11:44:47;;;;;;;8.02;5.90;;;;;;;;;;5034913;28;19913;-81
2021/07/08 11:47:13;;;;;;;10.32;6.75;;;;;;;;;;5017801;28;20033;-81
2021/07/08 11:49:39;;;;;;;10.98;7.53;;;;;;;;;;5017932;28;20069;-80
2021/07/08 11:52:18;;;;;;;7.30;5.18;;;;;;;;;;5034754;28;20107;-81
2021/07/08 11:55:00;;;;;;;7.47;5.50;;;;;;;;;;5034670;28;20165;-81
2021/07/08 11:57:27;;;;;;;7.93;5.90;;;;;;;;;;5034821;28;20331;-81
2021/07/08 11:59:53;;;;;;;8.02;6.18;;;;;;;;;;5021055;28;20077;-81
2021/07/08 12:02:36;;;;;;;10.95;6.18;;;;;;;;;;5075414;28;20115;-81
2021/07/08 12:05:14;;;;;;;7.40;5.47;;;;;;;;;;5075347;28;20036;-81
2021/07/08 12:07:46;;;;;;;9.48;5.45;;;;;;;;;;5076402;28;20028;-81
2021/07/08 12:10:12;;;;;;;7.72;5.40;;;;;;;;;;5076494;28;20032;-81
2021/07/08 12:12:39;;;;;;;9.25;5.93;;;;;;;;;;5076129;28;20062;-80
2021/07/08 12:15:06;;;;;;;9.45;5.70;;;;;;;;;;5075299;28;20087;-80
2021/07/08 12:17:32;;;;;;;9.07;5.95;;;;;;;;;;5077706;28;20034;-80
2021/07/08 12:20:06;;;;;;;12.13;6.00;;;;;;;;;;5079037;28;20119;-80
2021/07/08 12:22:32;;;;;;;11.55;5.75;;;;;;;;;;5080018;28;20345;-81
2021/07/08 12:24:58;;;;;;;7.72;5.47;;;;;;;;;;5079929;28;20036;-81
2021/07/08 12:27:26;;;;;;;8.75;5.70;;;;;;;;;;5080002;28;20474;-81
2021/07/08 12:29:52;;;;;;;6.38;5.72;;;;;;;;;;5078769;28;20036;-81
2021/07/08 12:32:21;;;;;;;9.77;5.93;;;;;;;;;;5080035;28;20029;-81
2021/07/08 12:34:53;;;;;;;9.43;5.75;;;;;;;;;;5079760;28;20134;-81
2021/07/08 12:37:22;;;;;;;10.55;5.55;;;;;;;;;;5078477;28;20032;-81
2021/07/08 12:39:53;;;;;;;12.23;5.43;;;;;;;;;;5079715;28;20031;-81
2021/07/08 12:42:21;;;;;;;6.53;5.47;;;;;;;;;;5079900;28;20017;-81
2021/07/08 12:44:51;;;;;;;11.52;5.63;;;;;;;;;;5078602;28;20453;-80
2021/07/08 12:47:18;;;;;;;9.18;5.90;;;;;;;;;;5078468;28;20040;-81
2021/07/08 12:49:48;;;;;;;6.28;4.93;;;;;;;;;;5079421;28;20067;-80
2021/07/08 12:52:14;;;;;;;8.32;5.75;;;;;;;;;;5078186;28;20020;-81
2021/07/08 12:54:40;;;;;;;10.57;5.35;;;;;;;;;;5079418;28;20028;-81
2021/07/08 12:57:14;;;;;;;8.27;5.30;;;;;;;;;;5079454;28;20571;-80
2021/07/08 12:59:54;;;;;;;8.05;5.53;;;;;;;;;;5079554;28;20032;-80
2021/07/08 13:02:21;;;;;;;9.93;5.75;;;;;;;;;;5079516;28;20096;-81
2021/07/08 13:04:47;;;;;;;12.70;5.68;;;;;;;;;;5077958;28;20039;-81
2021/07/08 13:07:13;;;;;;;9.95;5.07;;;;;;;;;;5079155;28;20028;-81
2021/07/08 13:09:39;;;;;;;8.95;5.47;;;;;;;;;;5079157;28;20403;-80
2021/07/08 13:12:21;;;;;;;12.70;5.53;;;;;;;;;;5077992;28;20129;-80
2021/07/08 13:14:47;;;;;;;11.88;4.88;;;;;;;;;;5078950;28;20037;-81
2021/07/08 13:17:14;;;;;;;9.85;5.10;;;;;;;;;;5078941;28;20035;-81
2021/07/08 13:19:42;;;;;;;7.57;5.35;;;;;;;;;;5078877;28;20017;-81
2021/07/08 13:22:11;;;;;;;6.88;4.85;;;;;;;;;;5077620;28;20123;-81
2021/07/08 13:24:37;;;;;;;5.50;4.95;;;;;;;;;;5078950;28;20020;-81
2021/07/08 13:27:04;;;;;;;9.07;5.43;;;;;;;;;;5078812;28;20373;-81
2021/07/08 13:29:30;;;;;;;9.70;5.40;;;;;;;;;;5078974;28;20032;-81
2021/07/08 13:31:56;;;;;;;13.25;5.20;;;;;;;;;;5078865;28;20074;-80
2021/07/08 13:34:25;;;;;;;14.63;6.15;;;;;;;;;;5078575;28;20039;-81
2021/07/08 13:36:53;;;;;;;10.73;5.70;;;;;;;;;;5079058;28;20283;-81
2021/07/08 13:39:22;;;;;;;9.15;5.38;;;;;;;;;;5078867;28;20025;-80
2021/07/08 13:41:49;;;;;;;9.23;4.95;;;;;;;;;;5077502;28;20120;-81
2021/07/08 13:44:28;;;;;;;6.85;5.32;;;;;;;;;;5077519;28;20418;-81
2021/07/08 13:47:04;;;;;;;7.97;4.82;;;;;;;;;;5078331;28;20099;-81
2021/07/08 13:49:31;;;;;;;12.38;5.10;;;;;;;;;;5078714;28;20103;-81
2021/07/08 13:51:58;;;;;;;8.07;5.00;;;;;;;;;;5078367;28;20024;-81
2021/07/08 13:54:26;;;;;;;10.10;5.55;;;;;;;;;;5078232;28;20051;-80
2021/07/08 13:56:53;;;;;;;9.90;5.00;;;;;;;;;;5078429;28;20291;-81
2021/07/08 13:59:19;;;;;;;9.40;5.10;;;;;;;;;;5077226;28;20042;-81
2021/07/08 14:01:47;;;;;;;7.13;5.13;;;;;;;;;;5077197;28;20411;-81
2021/07/08 14:04:13;;;;;;;9.05;5.57;;;;;;;;;;5077003;28;20038;-81
2021/07/08 14:06:39;;;;;;;10.13;5.00;;;;;;;;;;5078179;28;20373;-82
2021/07/08 14:09:05;;;;;;;9.32;7.15;;;;;;;;;;5078110;28;20020;-82
2021/07/08 14:11:32;;;;;;;20.10;12.02;;;;;;;;;;5078048;28;20020;-81
2021/07/08 14:13:58;;;;;;;14.32;7.72;;;;;;;;;;5077480;28;20047;-81
2021/07/08 14:16:25;;;;;;;9.25;6.43;;;;;;;;;;5076740;28;20130;-82
2021/07/08 14:18:52;;;;;;;13.45;9.38;;;;;;;;;;5076815;28;20027;-82
2021/07/08 14:21:19;;;;;;;13.27;9.30;;;;;;;;;;5076845;28;20016;-82
2021/07/08 14:23:46;;;;;;;11.60;5.78;;;;;;;;;;5077928;28;20024;-82
2021/07/08 14:26:12;;;;;;;6.65;5.65;;;;;;;;;;5077577;28;20436;-82
2021/07/08 14:28:39;;;;;;;14.25;5.35;;;;;;;;;;5076687;28;20086;-82
2021/07/08 14:31:05;;;;;;;11.15;5.30;;;;;;;;;;5077754;28;20032;-82
2021/07/08 14:33:31;;;;;;;8.80;5.22;;;;;;;;;;5077637;28;20024;-82